createdAt,value
2019-01-17T00:00:05.636Z,8.17
2019-01-17T00:02:55.715Z,8.53
2019-01-17T00:09:21.695Z,8.77
2019-01-17T00:12:11.787Z,8.83
2019-01-17T00:15:21.506Z,9.23
2019-01-17T00:18:30.872Z,8.70
2019-01-17T00:21:40.226Z,7.97
2019-01-17T00:24:49.563Z,7.83
2019-01-17T00:27:39.772Z,7.83
2019-01-17T00:30:50.584Z,9.40
2019-01-17T00:33:59.971Z,8.47
2019-01-17T00:36:50.002Z,7.27
2019-01-17T00:40:00.906Z,8.03
2019-01-17T00:43:10.272Z,7.47
2019-01-17T00:52:51.882Z,7.43
2019-01-17T00:56:01.172Z,7.50
2019-01-17T01:02:21.113Z,7.57
2019-01-17T01:05:30.484Z,8.70
2019-01-17T01:08:20.476Z,7.50
2019-01-17T01:13:51.109Z,7.90
2019-01-17T01:17:01.908Z,7.90
2019-01-17T01:19:51.994Z,7.60
2019-01-17T01:23:20.431Z,7.43
2019-01-17T01:26:10.542Z,7.77
2019-01-17T01:32:30.578Z,8.13
2019-01-17T01:42:25.654Z,7.63
2019-01-17T01:45:35.000Z,7.27
2019-01-17T01:52:00.064Z,7.47
2019-01-17T01:55:09.230Z,7.27
2019-01-17T01:57:59.372Z,7.13
2019-01-17T02:00:30.424Z,7.37
2019-01-17T02:03:01.374Z,7.63
2019-01-17T02:05:32.338Z,7.40
2019-01-17T02:08:03.559Z,7.23
2019-01-17T02:10:34.648Z,7.40
2019-01-17T02:13:05.846Z,7.83
2019-01-17T02:15:36.892Z,7.00
2019-01-17T02:18:07.948Z,6.77
2019-01-17T02:20:39.079Z,7.47
2019-01-17T02:23:29.257Z,7.00
2019-01-17T02:26:19.453Z,6.90
2019-01-17T02:28:50.456Z,7.03
2019-01-17T02:31:21.506Z,6.33
2019-01-17T02:34:11.706Z,6.53
2019-01-17T02:37:01.793Z,6.30
2019-01-17T02:39:32.842Z,6.83
2019-01-17T02:42:03.802Z,6.20
2019-01-17T02:44:34.814Z,6.30
2019-01-17T02:50:20.395Z,6.67
2019-01-17T02:56:05.981Z,6.70
2019-01-17T03:01:51.872Z,5.80
2019-01-17T03:04:22.961Z,5.77
2019-01-17T03:07:13.109Z,5.73
2019-01-17T03:09:43.988Z,5.20
2019-01-17T03:12:15.034Z,5.50
2019-01-17T03:15:05.321Z,5.23
2019-01-17T03:17:55.550Z,5.30
2019-01-17T03:23:35.558Z,5.13
2019-01-17T03:26:49.010Z,5.10
2019-01-17T03:29:19.967Z,4.70
2019-01-17T03:32:10.166Z,5.13
2019-01-17T03:35:00.301Z,5.03
2019-01-17T03:37:50.414Z,5.00
2019-01-17T03:40:40.469Z,4.60
2019-01-17T03:43:30.631Z,4.93
2019-01-17T03:46:20.687Z,5.20
2019-01-17T03:49:10.835Z,5.13
2019-01-17T03:52:20.109Z,5.10
2019-01-17T03:58:01.816Z,5.20
2019-01-17T04:00:51.951Z,5.17
2019-01-17T04:03:22.997Z,5.07
2019-01-17T04:06:13.177Z,5.00
2019-01-17T04:09:04.297Z,5.77
2019-01-17T04:11:54.529Z,5.80
2019-01-17T04:14:44.554Z,5.37
2019-01-17T04:17:34.865Z,5.20
2019-01-17T04:20:45.634Z,5.00
2019-01-17T04:23:16.690Z,5.40
2019-01-17T04:26:06.748Z,5.87
2019-01-17T04:28:37.762Z,5.60
2019-01-17T04:31:27.897Z,5.10
2019-01-17T04:34:37.180Z,4.77
2019-01-17T04:40:42.099Z,4.90
2019-01-17T04:43:32.386Z,4.67
2019-01-17T04:46:03.459Z,4.70
2019-01-17T04:49:33.543Z,4.60
2019-01-17T04:52:23.897Z,4.60
2019-01-17T04:55:14.110Z,4.50
2019-01-17T04:58:04.348Z,4.33
2019-01-17T05:01:13.556Z,3.90
2019-01-17T05:03:44.452Z,4.27
2019-01-17T05:06:15.387Z,4.10
2019-01-17T05:15:16.458Z,4.30
2019-01-17T05:18:06.549Z,3.83
2019-01-17T05:21:15.797Z,4.10
2019-01-17T05:24:05.986Z,4.23
2019-01-17T05:26:56.262Z,3.57
2019-01-17T05:30:05.404Z,3.80
2019-01-17T05:32:55.492Z,3.73
2019-01-17T05:35:45.600Z,3.50
2019-01-17T05:38:16.559Z,4.27
2019-01-17T05:41:06.742Z,3.50
2019-01-17T05:43:56.931Z,3.90
2019-01-17T05:46:46.960Z,4.13
2019-01-17T05:49:18.046Z,4.07
2019-01-17T05:52:08.329Z,4.17
2019-01-17T05:54:58.493Z,3.87
2019-01-17T05:57:48.607Z,4.00
2019-01-17T06:00:59.382Z,3.70
2019-01-17T06:03:49.514Z,3.97
2019-01-17T06:06:39.620Z,4.30
2019-01-17T06:09:29.844Z,4.17
2019-01-17T06:12:00.714Z,3.63
2019-01-17T06:14:31.583Z,3.70
2019-01-17T06:17:21.716Z,4.20
2019-01-17T06:19:52.863Z,4.00
2019-01-17T06:22:43.154Z,3.93
2019-01-17T06:25:53.930Z,3.83
2019-01-17T06:29:05.225Z,4.20
2019-01-17T06:31:36.326Z,3.97
2019-01-17T06:37:22.222Z,4.27
2019-01-17T06:40:12.572Z,4.23
2019-01-17T06:43:02.849Z,3.77
2019-01-17T06:45:53.129Z,4.23
2019-01-17T06:48:43.220Z,3.83
2019-01-17T06:51:14.118Z,3.97
2019-01-17T06:54:04.524Z,4.13
2019-01-17T06:56:54.715Z,3.97
2019-01-17T06:59:44.850Z,4.27
2019-01-17T07:02:15.869Z,4.73
2019-01-17T07:04:46.841Z,3.87
2019-01-17T07:07:17.795Z,4.30
2019-01-17T07:10:07.868Z,4.00
2019-01-17T07:12:58.023Z,3.93
2019-01-17T07:15:48.161Z,4.53
2019-01-17T07:18:19.073Z,4.10
2019-01-17T07:21:09.158Z,4.30
2019-01-17T07:23:59.383Z,4.17
2019-01-17T07:26:49.509Z,4.17
2019-01-17T07:29:20.492Z,4.57
2019-01-17T07:32:10.761Z,4.10
2019-01-17T07:35:00.967Z,4.40
2019-01-17T07:37:31.888Z,3.93
2019-01-17T07:40:02.869Z,4.30
2019-01-17T07:42:33.881Z,4.20
2019-01-17T07:45:44.667Z,3.93
2019-01-17T07:48:15.565Z,4.60
2019-01-17T07:50:46.531Z,4.50
2019-01-17T07:53:17.514Z,4.50
2019-01-17T07:55:48.519Z,4.63
2019-01-17T07:58:19.505Z,5.10
2019-01-17T08:00:50.511Z,4.73
2019-01-17T08:03:21.521Z,4.27
2019-01-17T08:05:52.535Z,5.07
2019-01-17T08:08:23.508Z,4.60
2019-01-17T08:10:54.589Z,4.90
2019-01-17T08:14:03.934Z,4.60
2019-01-17T08:16:34.965Z,4.90
2019-01-17T08:19:25.258Z,5.10
2019-01-17T08:22:15.453Z,4.47
2019-01-17T08:24:46.361Z,5.20
2019-01-17T08:27:36.585Z,4.47
2019-01-17T08:30:27.081Z,4.80
2019-01-17T08:33:17.242Z,4.80
2019-01-17T08:36:07.429Z,4.90
2019-01-17T08:38:38.546Z,5.50
2019-01-17T08:41:28.745Z,5.03
2019-01-17T08:47:53.871Z,5.77
2019-01-17T08:51:04.789Z,5.70
2019-01-17T08:53:54.975Z,5.80
2019-01-17T08:56:45.167Z,6.40
2019-01-17T08:59:35.360Z,5.90
2019-01-17T09:05:59.734Z,5.37
2019-01-17T09:08:49.905Z,6.67
2019-01-17T09:14:10.928Z,6.23
2019-01-17T09:17:01.212Z,5.97
2019-01-17T09:19:51.515Z,6.60
2019-01-17T09:22:22.474Z,5.93
2019-01-17T09:25:12.704Z,6.73
2019-01-17T09:28:02.929Z,6.47
2019-01-17T09:37:04.010Z,6.70
2019-01-17T09:39:34.912Z,6.57
2019-01-17T09:42:45.740Z,6.73
2019-01-17T09:45:56.536Z,6.50
2019-01-17T09:48:46.756Z,6.03
2019-01-17T09:51:36.912Z,6.40
2019-01-17T09:54:27.118Z,6.40
2019-01-17T09:56:58.185Z,6.73
2019-01-17T09:59:48.370Z,6.13
2019-01-17T10:02:38.538Z,6.67
2019-01-17T10:05:28.682Z,7.00
2019-01-17T10:07:59.772Z,6.70
2019-01-17T10:14:44.747Z,6.80
2019-01-17T10:17:55.590Z,6.13
2019-01-17T10:21:05.254Z,6.77
2019-01-17T10:24:14.750Z,6.23
2019-01-17T10:27:25.574Z,6.30
2019-01-17T10:34:31.303Z,5.83
2019-01-17T10:37:42.132Z,5.83
2019-01-17T10:40:53.008Z,5.50
2019-01-17T10:44:03.812Z,5.87
2019-01-17T10:47:14.686Z,5.20
2019-01-17T10:50:24.166Z,5.77
2019-01-17T10:53:34.991Z,5.50
2019-01-17T10:56:44.468Z,5.30
2019-01-17T10:59:55.305Z,5.50
2019-01-17T11:03:06.134Z,5.37
2019-01-17T11:06:16.988Z,5.43
2019-01-17T11:09:26.445Z,5.60
2019-01-17T11:12:35.926Z,5.43
2019-01-17T11:15:45.429Z,5.00
2019-01-17T11:18:56.287Z,4.77
2019-01-17T11:22:05.829Z,4.80
2019-01-17T11:25:16.658Z,4.67
2019-01-17T11:28:27.518Z,4.40
2019-01-17T11:31:56.254Z,3.83
2019-01-17T11:35:05.803Z,3.47
2019-01-17T11:38:16.660Z,3.50
2019-01-17T11:41:26.218Z,2.83
2019-01-17T11:44:54.786Z,2.90
2019-01-17T11:48:05.687Z,2.33
2019-01-17T11:51:16.542Z,1.87
2019-01-17T11:54:26.035Z,2.10
2019-01-17T11:57:36.833Z,2.43
2019-01-17T12:00:47.640Z,1.70
2019-01-17T12:03:58.509Z,1.90
2019-01-17T12:09:43.723Z,1.77
2019-01-17T12:12:54.599Z,1.70
2019-01-17T12:15:44.777Z,1.00
2019-01-17T12:18:15.839Z,1.30
2019-01-17T12:20:46.780Z,1.20
2019-01-17T12:23:37.118Z,1.00
2019-01-17T12:26:27.290Z,0.90
2019-01-17T12:28:58.199Z,0.90
2019-01-17T12:31:48.193Z,1.17
2019-01-17T12:34:38.419Z,1.00
2019-01-17T12:37:28.589Z,0.83
2019-01-17T12:40:18.690Z,0.90
2019-01-17T12:42:49.720Z,1.00
2019-01-17T12:45:20.766Z,1.00
2019-01-17T12:47:51.801Z,1.20
2019-01-17T12:50:42.105Z,0.80
2019-01-17T12:53:13.233Z,1.00
2019-01-17T12:55:44.139Z,0.87
2019-01-17T12:58:53.370Z,0.83
2019-01-17T13:02:02.699Z,1.00
2019-01-17T13:04:52.882Z,0.90
2019-01-17T13:07:43.102Z,0.80
2019-01-17T13:10:33.210Z,0.83
2019-01-17T13:13:42.543Z,0.60
2019-01-17T13:16:32.774Z,0.90
2019-01-17T13:19:23.015Z,0.67
2019-01-17T13:21:54.198Z,0.97
2019-01-17T13:25:05.003Z,1.00
2019-01-17T13:27:55.202Z,0.70
2019-01-17T13:30:26.147Z,0.73
2019-01-17T13:32:57.249Z,1.00
2019-01-17T13:35:47.395Z,0.70
2019-01-17T13:38:37.567Z,1.10
2019-01-17T13:43:58.893Z,1.00
2019-01-17T13:50:19.254Z,0.43
2019-01-17T13:55:40.128Z,0.83
2019-01-17T13:58:30.248Z,0.70
2019-01-17T14:01:20.465Z,0.77
2019-01-17T14:04:10.749Z,0.83
2019-01-17T14:09:58.012Z,0.70
2019-01-17T14:12:48.119Z,0.90
2019-01-17T14:15:58.923Z,0.60
2019-01-17T14:21:44.864Z,1.20
2019-01-17T14:24:16.092Z,0.60
2019-01-17T14:27:06.237Z,0.70
2019-01-17T14:29:56.346Z,0.70
2019-01-17T14:32:46.362Z,1.00
2019-01-17T14:38:21.667Z,0.80
2019-01-17T14:41:32.024Z,0.80
2019-01-17T14:44:02.989Z,1.20
2019-01-17T14:46:33.958Z,0.77
2019-01-17T14:49:05.103Z,1.20
2019-01-17T14:51:55.315Z,0.90
2019-01-17T14:54:45.592Z,0.90
2019-01-17T15:01:10.710Z,0.80
2019-01-17T15:04:00.862Z,1.00
2019-01-17T15:06:50.996Z,1.03
2019-01-17T15:09:41.196Z,1.10
2019-01-17T15:12:12.062Z,1.10
2019-01-17T15:18:38.078Z,0.97
2019-01-17T15:21:47.272Z,1.00
2019-01-17T15:24:58.221Z,0.97
2019-01-17T15:27:48.316Z,0.80
2019-01-17T15:30:38.427Z,1.00
2019-01-17T15:33:28.444Z,0.90
2019-01-17T15:36:18.720Z,1.30
2019-01-17T15:42:00.267Z,1.10
2019-01-17T15:45:09.386Z,0.80
2019-01-17T15:47:40.424Z,1.00
2019-01-17T15:50:30.820Z,0.80
2019-01-17T15:53:21.047Z,1.30
2019-01-17T15:56:31.857Z,0.80
2019-01-17T15:59:23.583Z,0.80
2019-01-17T16:02:13.800Z,0.77
2019-01-17T16:04:44.763Z,0.70
2019-01-17T16:11:04.741Z,0.77
2019-01-17T16:13:55.036Z,0.87
2019-01-17T16:16:48.398Z,0.67
2019-01-17T16:23:26.193Z,0.60
2019-01-17T16:26:16.387Z,0.67
2019-01-17T16:29:06.704Z,1.00
2019-01-17T16:31:56.993Z,0.87
2019-01-17T16:44:54.597Z,1.00
2019-01-17T16:48:05.389Z,1.10
2019-01-17T16:50:56.865Z,0.73
2019-01-17T16:53:28.003Z,0.70
2019-01-17T16:59:07.869Z,0.67
2019-01-17T17:04:49.472Z,0.70
2019-01-17T17:07:39.558Z,0.70
2019-01-17T17:10:50.383Z,0.80
2019-01-17T17:13:21.443Z,1.07
2019-01-17T17:15:52.377Z,1.00
2019-01-17T17:18:23.554Z,0.87
2019-01-17T17:20:55.109Z,1.30
2019-01-17T17:29:33.395Z,0.67
2019-01-17T17:32:04.435Z,0.67
2019-01-17T17:34:54.610Z,0.60
2019-01-17T17:37:44.895Z,0.80
2019-01-17T17:40:35.184Z,0.60
2019-01-17T17:43:06.306Z,0.60
2019-01-17T17:45:37.404Z,0.87
2019-01-17T17:48:27.758Z,0.60
2019-01-17T17:51:17.953Z,0.90
2019-01-17T17:54:08.330Z,0.77
2019-01-17T17:57:19.199Z,0.70
2019-01-17T18:00:09.442Z,0.80
2019-01-17T18:05:51.189Z,0.70
2019-01-17T18:09:00.711Z,0.80
2019-01-17T18:14:46.601Z,0.70
2019-01-17T18:20:49.896Z,0.60
2019-01-17T18:23:40.058Z,0.90
2019-01-17T18:29:20.455Z,0.80
2019-01-17T18:32:10.704Z,0.90
2019-01-17T18:35:00.856Z,0.90
2019-01-17T18:37:31.858Z,0.70
2019-01-17T18:40:42.697Z,0.60
2019-01-17T18:46:03.615Z,0.57
2019-01-17T18:48:53.728Z,0.70
2019-01-17T18:51:43.827Z,0.67
2019-01-17T18:54:14.882Z,0.63
2019-01-17T19:01:01.255Z,0.70
2019-01-17T19:04:12.382Z,0.60
2019-01-17T19:08:03.142Z,0.80
2019-01-17T19:10:54.886Z,0.60
2019-01-17T19:17:02.786Z,0.70
2019-01-17T19:20:56.381Z,0.80
2019-01-17T19:24:31.303Z,1.00
2019-01-17T19:31:13.076Z,0.87
2019-01-17T19:34:23.999Z,1.20
2019-01-17T19:37:14.413Z,1.27
2019-01-17T19:40:26.179Z,1.20
2019-01-17T19:43:40.312Z,1.50
2019-01-17T19:54:36.793Z,1.60
2019-01-17T19:57:47.632Z,1.60
2019-01-17T20:00:58.417Z,1.57
2019-01-17T20:03:48.544Z,2.20
2019-01-17T20:06:38.720Z,2.00
2019-01-17T20:12:39.529Z,1.83
2019-01-17T20:15:10.906Z,2.03
2019-01-17T20:17:42.046Z,3.00
2019-01-17T20:20:52.839Z,2.90
2019-01-17T20:23:42.992Z,2.40
2019-01-17T20:26:33.273Z,2.97
2019-01-17T20:29:23.591Z,2.73
2019-01-17T20:32:18.763Z,3.00
2019-01-17T20:35:24.743Z,3.20
2019-01-17T20:37:55.780Z,2.80
2019-01-17T20:40:26.791Z,2.53
2019-01-17T20:42:57.867Z,2.63
2019-01-17T20:45:28.989Z,2.50
2019-01-17T20:48:19.244Z,2.30
2019-01-17T20:51:09.412Z,2.57
2019-01-17T20:53:40.338Z,2.67
2019-01-17T20:56:11.355Z,3.97
2019-01-17T20:59:01.398Z,2.77
2019-01-17T21:01:44.098Z,1.07
2019-01-17T21:04:34.282Z,1.40
2019-01-17T21:07:24.418Z,1.27
2019-01-17T21:10:14.649Z,1.80
2019-01-17T21:13:04.940Z,1.03
2019-01-17T21:16:01.046Z,0.80
2019-01-17T21:19:06.041Z,1.23
2019-01-17T21:21:37.058Z,1.20
2019-01-17T21:24:27.201Z,1.13
2019-01-17T21:30:33.898Z,0.97
2019-01-17T21:33:23.986Z,1.23
2019-01-17T21:35:54.949Z,1.30
2019-01-17T21:38:45.130Z,1.30
2019-01-17T21:41:35.275Z,1.17
2019-01-17T21:44:25.351Z,1.47
2019-01-17T21:47:15.576Z,1.60
2019-01-17T21:50:45.475Z,1.60
2019-01-17T21:53:36.146Z,1.93
2019-01-17T21:56:07.274Z,1.50
2019-01-17T22:01:47.252Z,1.70
2019-01-17T22:04:37.545Z,1.70
2019-01-17T22:07:08.615Z,1.30
2019-01-17T22:12:48.748Z,1.67
2019-01-17T22:15:59.613Z,1.83
2019-01-17T22:18:49.878Z,1.80
2019-01-17T22:21:39.975Z,1.83
2019-01-17T22:24:10.872Z,1.57
2019-01-17T22:26:41.813Z,2.00
2019-01-17T22:32:10.844Z,2.13
2019-01-17T22:35:00.929Z,1.80
2019-01-17T22:40:21.951Z,1.67
2019-01-17T22:46:41.976Z,1.97
2019-01-17T22:49:12.858Z,1.77
2019-01-17T22:52:02.941Z,1.80
2019-01-17T22:54:33.880Z,1.87
2019-01-17T22:57:44.688Z,2.03
2019-01-17T23:00:55.965Z,1.87
2019-01-17T23:04:06.806Z,2.27
2019-01-17T23:09:46.835Z,2.17
2019-01-17T23:12:37.004Z,2.27
2019-01-17T23:15:47.800Z,1.90
2019-01-17T23:21:27.776Z,2.23
2019-01-17T23:24:17.964Z,2.20
2019-01-17T23:26:48.916Z,1.97
2019-01-17T23:29:39.123Z,1.80
2019-01-17T23:32:29.213Z,2.23
2019-01-17T23:35:19.326Z,1.83
2019-01-17T23:41:04.665Z,2.20
2019-01-17T23:43:35.580Z,2.17
2019-01-17T23:46:25.652Z,1.87
2019-01-17T23:49:15.856Z,2.50
2019-01-17T23:51:46.762Z,2.53
2019-01-17T23:54:36.932Z,2.60
2019-01-17T23:57:26.975Z,2.63
